Time;durP1;ratioP1;P1;durP2;ratioP2;P2;SDS_P1;SDS_P2;PMS_P1;PMS_P2;Temp;Humidity;BMP_temperature;BMP_pressure;BME280_temperature;BME280_humidity;BME280_pressure;Samples;Min_cycle;Max_cycle;Signal;HPM_P1;HPM_P2
2023/07/08 00:00:53;;;;;;;3.88;1.90;;;16.60;99.90;;;;;;5072877;28;20051;-64
2023/07/08 00:03:20;;;;;;;3.28;1.88;;;16.60;99.90;;;;;;5072766;28;20109;-63
2023/07/08 00:05:50;;;;;;;1.60;1.40;;;16.50;99.90;;;;;;5074812;28;20462;-64
2023/07/08 00:08:19;;;;;;;2.20;1.17;;;16.40;99.90;;;;;;5078213;28;20113;-64
2023/07/08 00:10:47;;;;;;;2.38;1.33;;;16.40;99.90;;;;;;5072804;28;20549;-63
2023/07/08 00:13:14;;;;;;;3.00;1.73;;;16.40;99.90;;;;;;5075432;28;20143;-63
2023/07/08 00:15:41;;;;;;;5.28;2.35;;;16.30;99.90;;;;;;5075169;28;20045;-63
2023/07/08 00:18:17;;;;;;;4.70;1.20;;;16.30;99.90;;;;;;5072727;28;20527;-63
2023/07/08 00:20:49;;;;;;;2.63;1.40;;;16.30;99.90;;;;;;5076443;28;20497;-63
2023/07/08 00:23:21;;;;;;;1.40;1.10;;;16.30;99.90;;;;;;5075772;28;20999;-65
2023/07/08 00:25:49;;;;;;;2.72;1.25;;;16.20;99.90;;;;;;5077568;28;20792;-64
2023/07/08 00:28:21;;;;;;;2.80;2.03;;;16.20;99.90;;;;;;5080721;28;20130;-64
2023/07/08 00:30:48;;;;;;;1.52;1.42;;;16.20;99.90;;;;;;5072826;28;20047;-63
2023/07/08 00:33:16;;;;;;;3.13;1.38;;;16.10;99.90;;;;;;5062603;28;20556;-64
2023/07/08 00:35:45;;;;;;;2.35;1.55;;;16.00;99.90;;;;;;5074002;28;20044;-64
2023/07/08 00:38:20;;;;;;;1.73;1.63;;;16.00;99.90;;;;;;5062880;28;20048;-64
2023/07/08 00:41:04;;;;;;;2.17;1.63;;;16.00;99.90;;;;;;5077817;28;20378;-63
2023/07/08 00:43:56;;;;;;;2.72;1.42;;;16.00;99.90;;;;;;5073761;28;20394;-63
2023/07/08 00:46:31;;;;;;;2.00;1.65;;;15.90;99.90;;;;;;5064295;28;20063;-65
2023/07/08 00:49:08;;;;;;;1.55;1.42;;;15.90;99.90;;;;;;5073777;28;20744;-63
2023/07/08 00:51:37;;;;;;;4.25;1.48;;;15.90;99.90;;;;;;5072172;28;20048;-64
2023/07/08 00:54:15;;;;;;;3.65;1.73;;;15.80;99.90;;;;;;5076654;28;20409;-63
2023/07/08 00:56:59;;;;;;;2.35;1.58;;;15.80;99.90;;;;;;5055728;28;20514;-63
2023/07/08 00:59:36;;;;;;;2.17;2.08;;;15.80;99.90;;;;;;5077393;28;20050;-64
2023/07/08 01:02:07;;;;;;;3.97;1.73;;;15.80;99.90;;;;;;5074222;28;20049;-64
2023/07/08 01:05:26;;;;;;;3.60;2.30;;;15.80;99.90;;;;;;5076082;28;20048;-63
2023/07/08 01:07:58;;;;;;;2.97;1.63;;;15.70;99.90;;;;;;4992155;28;20752;-63
2023/07/08 01:10:48;;;;;;;2.50;1.73;;;15.70;99.90;;;;;;4992024;28;20507;-63
2023/07/08 01:13:16;;;;;;;;;;;15.60;99.90;;;;;;5052268;28;20056;-65
2023/07/08 01:15:46;;;;;;;4.75;2.75;;;15.60;99.90;;;;;;5074952;28;20695;-63
2023/07/08 01:18:16;;;;;;;2.22;1.73;;;15.60;99.90;;;;;;5076888;28;20321;-64
2023/07/08 01:20:43;;;;;;;;;;;15.60;99.90;;;;;;5076980;28;20052;-64
2023/07/08 01:23:11;;;;;;;2.35;1.58;;;15.50;99.90;;;;;;5067957;28;19930;-64
2023/07/08 01:25:41;;;;;;;3.03;2.22;;;15.50;99.90;;;;;;5074658;28;20105;-63
2023/07/08 01:28:08;;;;;;;4.10;2.13;;;15.40;99.90;;;;;;5080043;28;20044;-64
2023/07/08 01:30:36;;;;;;;2.67;2.13;;;15.40;99.90;;;;;;5078877;28;20117;-63
2023/07/08 01:33:12;;;;;;;4.22;2.08;;;15.40;99.90;;;;;;5082231;28;20051;-63
2023/07/08 01:35:39;;;;;;;3.35;2.03;;;15.40;99.90;;;;;;5078751;28;20411;-63
2023/07/08 01:38:10;;;;;;;2.95;1.52;;;15.40;99.90;;;;;;5074003;28;20128;-63
2023/07/08 01:40:48;;;;;;;7.47;1.85;;;15.30;99.90;;;;;;5057402;28;20044;-64
2023/07/08 01:43:16;;;;;;;4.60;2.15;;;15.30;99.90;;;;;;5075463;28;20036;-64
2023/07/08 01:45:43;;;;;;;2.30;1.75;;;15.30;99.90;;;;;;5077070;28;20438;-65
2023/07/08 01:48:16;;;;;;;3.05;1.65;;;15.30;99.90;;;;;;5072627;28;20661;-64
2023/07/08 01:50:59;;;;;;;3.78;1.77;;;15.30;99.90;;;;;;5075642;28;20036;-63
2023/07/08 01:53:37;;;;;;;2.28;1.52;;;15.30;99.90;;;;;;5079923;28;20036;-63
2023/07/08 01:56:05;;;;;;;4.75;1.50;;;15.30;99.90;;;;;;5075204;28;20044;-64
2023/07/08 01:58:32;;;;;;;1.98;1.70;;;15.30;99.90;;;;;;5070812;28;20044;-63
2023/07/08 02:01:00;;;;;;;1.88;1.55;;;15.30;99.90;;;;;;5067426;28;20048;-64
2023/07/08 02:03:28;;;;;;;1.65;1.40;;;15.30;99.90;;;;;;5049623;28;20048;-64
2023/07/08 02:05:55;;;;;;;3.28;1.90;;;15.30;99.90;;;;;;5078475;28;20079;-64
2023/07/08 02:08:22;;;;;;;2.42;1.50;;;15.30;99.90;;;;;;5057505;28;20064;-64
2023/07/08 02:10:52;;;;;;;1.70;1.60;;;15.30;99.90;;;;;;5078564;28;20060;-64
2023/07/08 02:13:21;;;;;;;3.10;2.80;;;15.30;99.90;;;;;;5068071;28;20056;-63
2023/07/08 02:15:49;;;;;;;5.03;2.13;;;15.30;99.90;;;;;;5078235;28;20048;-64
2023/07/08 02:18:18;;;;;;;4.22;1.60;;;15.30;99.90;;;;;;5080210;28;20041;-64
2023/07/08 02:20:46;;;;;;;1.65;1.50;;;15.30;99.90;;;;;;5072581;28;20097;-63
2023/07/08 02:23:14;;;;;;;1.67;1.52;;;15.30;99.90;;;;;;5078201;28;20040;-64
2023/07/08 02:25:41;;;;;;;5.88;1.67;;;15.30;99.90;;;;;;5079704;28;20064;-63
2023/07/08 02:28:11;;;;;;;3.20;1.45;;;15.30;99.90;;;;;;5078047;28;20040;-63
2023/07/08 02:30:40;;;;;;;4.30;1.80;;;15.30;99.90;;;;;;5064368;28;20052;-64
2023/07/08 02:33:09;;;;;;;1.75;1.40;;;15.30;99.90;;;;;;5077592;28;20044;-63
2023/07/08 02:35:36;;;;;;;2.22;1.88;;;15.40;99.90;;;;;;5067200;28;20048;-64
2023/07/08 02:38:04;;;;;;;1.60;1.50;;;15.40;99.90;;;;;;5081412;28;20912;-63
2023/07/08 02:40:31;;;;;;;2.50;1.80;;;15.40;99.90;;;;;;5076134;28;20093;-63
2023/07/08 02:42:58;;;;;;;3.30;1.98;;;15.40;99.90;;;;;;5078203;28;20102;-64
2023/07/08 02:45:25;;;;;;;3.13;1.42;;;15.40;99.90;;;;;;5077880;28;20116;-63
2023/07/08 02:47:52;;;;;;;2.67;1.70;;;15.40;99.90;;;;;;5075560;28;20053;-64
2023/07/08 02:50:19;;;;;;;1.80;1.63;;;15.40;99.90;;;;;;5081331;28;20613;-65
2023/07/08 02:52:46;;;;;;;2.85;1.45;;;15.40;99.90;;;;;;5065594;28;20101;-64
2023/07/08 02:55:13;;;;;;;3.70;1.60;;;15.40;99.90;;;;;;5080082;28;20039;-63
2023/07/08 02:57:40;;;;;;;3.92;1.92;;;15.40;99.90;;;;;;5065163;28;20503;-63
2023/07/08 03:00:07;;;;;;;2.45;1.55;;;15.40;99.90;;;;;;5082032;28;20065;-65
2023/07/08 03:02:34;;;;;;;5.53;1.77;;;15.40;99.90;;;;;;5064159;28;20083;-63
2023/07/08 03:05:01;;;;;;;2.50;1.67;;;15.50;99.90;;;;;;5082282;28;20062;-65
2023/07/08 03:07:28;;;;;;;2.67;1.92;;;15.50;99.90;;;;;;5079842;28;20083;-64
2023/07/08 03:09:55;;;;;;;7.57;1.58;;;15.50;99.90;;;;;;5056210;28;20036;-64
2023/07/08 03:12:22;;;;;;;2.20;1.90;;;15.50;99.90;;;;;;5045534;28;20049;-63
2023/07/08 03:14:49;;;;;;;3.35;1.42;;;15.50;99.90;;;;;;5061049;28;20461;-64
2023/07/08 03:17:17;;;;;;;2.95;1.77;;;15.50;99.90;;;;;;5063656;28;20032;-63
2023/07/08 03:19:45;;;;;;;4.22;1.73;;;15.50;99.90;;;;;;5056189;28;20045;-63
2023/07/08 03:22:12;;;;;;;4.78;2.53;;;15.60;99.90;;;;;;5043990;28;20164;-64
2023/07/08 03:24:45;;;;;;;5.07;1.65;;;15.60;99.90;;;;;;5059493;28;20522;-64
2023/07/08 03:27:17;;;;;;;5.45;2.17;;;15.70;99.90;;;;;;5048758;28;20507;-65
2023/07/08 03:29:46;;;;;;;3.47;2.00;;;15.70;99.90;;;;;;5059605;28;20060;-64
2023/07/08 03:32:13;;;;;;;3.08;2.13;;;15.70;99.90;;;;;;5041752;28;20289;-63
2023/07/08 03:34:41;;;;;;;3.05;1.52;;;15.80;99.90;;;;;;5064416;28;20059;-65
2023/07/08 03:37:09;;;;;;;4.43;2.38;;;15.80;99.90;;;;;;5060167;28;20460;-63
2023/07/08 03:39:36;;;;;;;1.88;1.52;;;15.80;99.90;;;;;;5062354;28;20045;-64
2023/07/08 03:42:03;;;;;;;3.90;2.10;;;15.80;99.90;;;;;;5059566;28;20045;-63
2023/07/08 03:44:31;;;;;;;2.20;1.95;;;15.80;99.90;;;;;;5049115;28;20048;-64
2023/07/08 03:46:58;;;;;;;2.33;1.65;;;15.80;99.90;;;;;;5050199;28;20045;-63
2023/07/08 03:49:26;;;;;;;2.10;1.75;;;15.90;99.90;;;;;;5061823;28;20095;-64
2023/07/08 03:51:54;;;;;;;4.00;1.67;;;15.90;99.90;;;;;;5043795;28;20048;-63
2023/07/08 03:54:24;;;;;;;4.35;2.03;;;15.90;99.90;;;;;;5059000;28;20041;-63
2023/07/08 03:56:54;;;;;;;3.97;2.22;;;15.90;99.90;;;;;;5061413;28;20510;-64
2023/07/08 03:59:23;;;;;;;2.35;2.15;;;15.90;99.90;;;;;;5050564;28;20103;-63
2023/07/08 04:01:50;;;;;;;2.60;1.50;;;15.90;99.90;;;;;;5045444;28;20060;-63
2023/07/08 04:04:17;;;;;;;7.88;2.95;;;15.90;99.90;;;;;;5064507;28;20159;-63
2023/07/08 04:06:45;;;;;;;3.72;2.22;;;16.00;99.90;;;;;;5056668;28;20055;-65
2023/07/08 04:09:13;;;;;;;7.85;2.63;;;16.00;99.90;;;;;;5070486;28;20413;-64
2023/07/08 04:11:39;;;;;;;4.13;1.77;;;15.90;99.90;;;;;;5073303;28;20278;-63
2023/07/08 04:14:09;;;;;;;3.08;2.05;;;15.90;99.90;;;;;;5080275;28;20075;-63
2023/07/08 04:16:48;;;;;;;3.40;2.53;;;15.90;99.90;;;;;;5077223;28;20417;-64
2023/07/08 04:19:15;;;;;;;6.53;2.75;;;15.90;99.90;;;;;;5074849;28;20264;-64
2023/07/08 04:21:44;;;;;;;4.60;2.15;;;15.90;99.90;;;;;;5077635;28;20055;-63
2023/07/08 04:24:14;;;;;;;3.88;2.03;;;15.90;99.90;;;;;;5079953;28;20044;-63
2023/07/08 04:26:41;;;;;;;3.05;2.05;;;15.90;99.90;;;;;;5075557;28;20497;-63
2023/07/08 04:29:13;;;;;;;2.75;1.98;;;16.00;99.90;;;;;;5075338;28;20446;-63
2023/07/08 04:31:41;;;;;;;3.03;2.13;;;16.00;99.90;;;;;;5081344;28;20048;-63
2023/07/08 04:34:09;;;;;;;6.03;2.15;;;16.00;99.90;;;;;;5073671;28;20111;-63
2023/07/08 04:36:36;;;;;;;4.35;1.92;;;15.90;99.90;;;;;;5074017;28;20348;-63
2023/07/08 04:39:04;;;;;;;3.83;1.60;;;15.90;99.90;;;;;;5073282;28;20071;-63
2023/07/08 04:41:32;;;;;;;1.67;1.48;;;15.90;99.90;;;;;;5071144;28;20435;-63
2023/07/08 04:44:02;;;;;;;7.07;2.15;;;15.90;99.90;;;;;;5073164;28;20044;-64
2023/07/08 04:46:37;;;;;;;2.80;2.15;;;15.90;99.90;;;;;;5079176;28;20067;-64
2023/07/08 04:49:05;;;;;;;3.60;1.95;;;16.00;99.90;;;;;;5073945;28;20040;-64
2023/07/08 04:51:33;;;;;;;3.15;2.17;;;16.00;99.90;;;;;;5072426;28;20442;-63
2023/07/08 04:54:00;;;;;;;8.73;4.20;;;16.00;99.90;;;;;;5076204;28;20040;-64
2023/07/08 04:56:39;;;;;;;2.10;1.52;;;16.00;99.90;;;;;;5072749;28;20072;-64
2023/07/08 04:59:08;;;;;;;2.97;2.58;;;16.00;99.90;;;;;;5070783;28;20036;-63
2023/07/08 05:01:36;;;;;;;3.97;2.15;;;16.00;99.90;;;;;;5077280;28;20191;-64
2023/07/08 05:04:07;;;;;;;3.10;2.35;;;16.00;99.90;;;;;;5074645;28;20052;-63
2023/07/08 05:06:34;;;;;;;4.20;2.33;;;16.00;99.90;;;;;;5075015;28;20036;-64
2023/07/08 05:09:02;;;;;;;3.28;2.03;;;16.00;99.90;;;;;;5078169;28;20106;-64
2023/07/08 05:11:30;;;;;;;6.80;2.72;;;16.10;99.90;;;;;;5076582;28;20040;-64
2023/07/08 05:13:57;;;;;;;6.00;3.78;;;16.10;99.90;;;;;;5079691;28;20176;-63
2023/07/08 05:16:24;;;;;;;4.60;3.03;;;16.20;99.90;;;;;;5073677;28;20066;-63
2023/07/08 05:18:51;;;;;;;7.35;3.85;;;16.20;99.90;;;;;;5076041;28;20036;-65
2023/07/08 05:21:19;;;;;;;3.67;3.28;;;16.20;99.90;;;;;;5074094;28;20044;-64
2023/07/08 05:23:50;;;;;;;6.65;3.25;;;16.20;99.90;;;;;;5078213;28;20044;-65
2023/07/08 05:26:17;;;;;;;4.38;2.70;;;16.20;99.90;;;;;;5074953;28;20052;-64
2023/07/08 05:28:44;;;;;;;2.90;2.67;;;16.20;99.90;;;;;;5077352;28;20047;-64
2023/07/08 05:31:11;;;;;;;3.78;2.33;;;16.20;99.90;;;;;;5075434;28;20040;-63
2023/07/08 05:33:38;;;;;;;4.55;1.90;;;16.20;99.90;;;;;;5072103;28;20040;-63
2023/07/08 05:36:05;;;;;;;3.80;2.80;;;16.20;99.90;;;;;;5074806;28;20070;-63
2023/07/08 05:38:32;;;;;;;4.57;2.15;;;16.20;99.90;;;;;;5072758;28;20063;-64
2023/07/08 05:40:59;;;;;;;4.60;2.42;;;16.10;99.90;;;;;;5073268;28;20094;-63
2023/07/08 05:43:26;;;;;;;2.40;2.20;;;16.10;99.90;;;;;;5073170;28;20469;-64
2023/07/08 05:45:58;;;;;;;4.57;2.35;;;16.10;99.90;;;;;;5076637;28;20051;-63
2023/07/08 05:48:38;;;;;;;3.10;2.22;;;16.10;99.90;;;;;;5071306;28;20076;-64
2023/07/08 05:51:05;;;;;;;5.40;2.30;;;16.10;99.90;;;;;;5075168;28;20122;-69
2023/07/08 05:53:32;;;;;;;5.68;2.22;;;16.10;99.90;;;;;;5081209;28;20041;-64
2023/07/08 05:55:59;;;;;;;4.25;2.97;;;16.10;99.90;;;;;;5073747;28;20102;-64
2023/07/08 05:58:26;;;;;;;3.30;2.00;;;16.10;99.90;;;;;;5076588;28;20044;-64
2023/07/08 06:00:57;;;;;;;9.60;4.35;;;16.10;99.90;;;;;;5076255;28;20448;-63
2023/07/08 06:03:25;;;;;;;3.40;2.20;;;16.10;99.90;;;;;;5078956;28;20042;-63
2023/07/08 06:05:52;;;;;;;3.45;2.40;;;16.20;99.90;;;;;;5072896;28;20062;-63
2023/07/08 06:08:20;;;;;;;5.70;2.40;;;16.20;99.90;;;;;;5076790;28;20060;-63
2023/07/08 06:10:47;;;;;;;3.13;2.67;;;16.20;99.90;;;;;;5081585;28;20043;-64
2023/07/08 06:13:14;;;;;;;3.88;2.80;;;16.20;99.90;;;;;;5072445;28;20097;-63
2023/07/08 06:15:42;;;;;;;4.00;2.55;;;16.10;99.90;;;;;;5080099;28;20486;-63
2023/07/08 06:18:09;;;;;;;4.65;3.20;;;16.20;99.90;;;;;;5080241;28;20040;-63
2023/07/08 06:20:36;;;;;;;4.32;2.90;;;16.20;99.90;;;;;;5078128;28;20041;-64
2023/07/08 06:23:03;;;;;;;4.00;2.58;;;16.30;99.90;;;;;;5080713;28;20493;-63
2023/07/08 06:25:31;;;;;;;2.40;2.20;;;16.40;99.90;;;;;;5082168;28;20108;-65
2023/07/08 06:27:58;;;;;;;3.95;3.25;;;16.30;99.90;;;;;;5081356;28;20052;-65
2023/07/08 06:30:25;;;;;;;4.60;2.78;;;16.30;99.90;;;;;;5071477;28;20064;-65
2023/07/08 06:32:52;;;;;;;2.80;2.35;;;16.30;99.90;;;;;;5078288;28;20131;-63
2023/07/08 06:35:19;;;;;;;4.47;2.08;;;16.40;99.90;;;;;;5073276;28;20046;-64
2023/07/08 06:37:45;;;;;;;16.48;3.03;;;16.40;99.90;;;;;;5075167;28;20453;-63
2023/07/08 06:40:13;;;;;;;4.68;2.60;;;16.40;99.90;;;;;;5074855;28;20052;-64
2023/07/08 06:42:40;;;;;;;4.47;2.65;;;16.40;99.90;;;;;;5078854;28;20067;-64
2023/07/08 06:45:14;;;;;;;5.25;2.65;;;16.40;99.90;;;;;;5064237;28;20048;-63
2023/07/08 06:47:41;;;;;;;7.72;3.33;;;16.40;99.90;;;;;;5080467;28;20064;-63
2023/07/08 06:50:08;;;;;;;3.35;2.33;;;16.50;99.90;;;;;;5076257;28;20044;-64
2023/07/08 06:52:36;;;;;;;5.40;2.47;;;16.50;99.90;;;;;;5078241;28;20036;-64
2023/07/08 06:55:08;;;;;;;3.45;2.75;;;16.50;99.90;;;;;;5083478;28;20050;-63
2023/07/08 06:57:35;;;;;;;6.10;2.83;;;16.50;99.90;;;;;;5079189;28;20036;-63
2023/07/08 07:00:03;;;;;;;2.88;2.38;;;16.50;99.90;;;;;;5080013;28;20068;-63
2023/07/08 07:02:30;;;;;;;7.72;2.80;;;16.50;99.90;;;;;;5076996;28;20040;-65
2023/07/08 07:04:57;;;;;;;6.35;2.47;;;16.40;99.90;;;;;;5076345;28;20075;-64
2023/07/08 07:07:24;;;;;;;5.38;2.78;;;16.40;99.90;;;;;;5075778;28;20052;-63
2023/07/08 07:09:50;;;;;;;3.40;3.03;;;16.30;99.90;;;;;;5078720;28;20060;-64
2023/07/08 07:12:18;;;;;;;6.05;3.05;;;16.30;99.90;;;;;;5073617;28;20094;-64
2023/07/08 07:14:45;;;;;;;5.03;3.50;;;16.30;99.90;;;;;;5078363;28;20072;-64
2023/07/08 07:17:13;;;;;;;4.78;2.83;;;16.20;99.90;;;;;;5069752;28;20051;-64
2023/07/08 07:19:40;;;;;;;3.95;3.03;;;16.30;99.90;;;;;;5073837;28;20064;-63
2023/07/08 07:22:07;;;;;;;4.63;2.67;;;16.40;99.90;;;;;;5073945;28;20409;-64
2023/07/08 07:24:34;;;;;;;4.22;2.83;;;16.40;99.90;;;;;;5076167;28;20284;-63
2023/07/08 07:27:01;;;;;;;6.10;3.00;;;16.40;99.90;;;;;;5073717;28;20110;-65
2023/07/08 07:29:28;;;;;;;5.25;3.38;;;16.40;99.90;;;;;;5081220;28;20036;-63
2023/07/08 07:31:55;;;;;;;6.28;2.97;;;16.40;99.90;;;;;;5076703;28;20124;-64
2023/07/08 07:34:22;;;;;;;8.52;2.97;;;16.50;99.90;;;;;;5077961;28;20050;-64
2023/07/08 07:36:49;;;;;;;6.20;3.15;;;16.40;99.90;;;;;;5076177;28;20090;-65
2023/07/08 07:39:16;;;;;;;4.95;2.75;;;16.50;99.90;;;;;;5076258;28;20094;-64
2023/07/08 07:41:43;;;;;;;6.70;3.13;;;16.50;99.90;;;;;;5075877;28;20389;-64
2023/07/08 07:44:10;;;;;;;3.55;2.83;;;16.60;99.90;;;;;;5077852;28;20064;-63
2023/07/08 07:46:36;;;;;;;6.05;3.58;;;16.70;99.90;;;;;;5074891;28;20060;-64
2023/07/08 07:49:03;;;;;;;3.42;3.13;;;16.60;99.90;;;;;;5079442;28;20047;-65
2023/07/08 07:51:30;;;;;;;8.38;3.13;;;16.60;99.90;;;;;;5077351;28;20036;-65
2023/07/08 07:53:57;;;;;;;4.50;3.40;;;16.70;99.90;;;;;;5074203;28;20489;-64
2023/07/08 07:56:24;;;;;;;3.80;2.88;;;16.70;99.90;;;;;;5076439;28;20071;-64
2023/07/08 07:58:52;;;;;;;7.32;3.38;;;16.70;99.90;;;;;;5078142;28;20671;-64
2023/07/08 08:01:19;;;;;;;4.03;3.03;;;16.60;99.90;;;;;;5077525;28;20044;-63
2023/07/08 08:03:50;;;;;;;6.13;3.17;;;16.70;99.90;;;;;;5074359;28;20499;-65
2023/07/08 08:06:17;;;;;;;4.32;3.35;;;16.60;99.90;;;;;;5075669;28;20147;-64
2023/07/08 08:08:45;;;;;;;6.18;3.55;;;16.70;99.90;;;;;;5072626;28;20051;-65
2023/07/08 08:11:12;;;;;;;4.22;2.80;;;16.80;99.90;;;;;;5078048;28;20043;-63
2023/07/08 08:13:39;;;;;;;5.88;3.05;;;16.90;99.90;;;;;;5075748;28;20485;-64
2023/07/08 08:16:06;;;;;;;4.10;2.95;;;16.90;99.90;;;;;;5075076;28;20048;-63
2023/07/08 08:18:33;;;;;;;5.40;3.00;;;16.70;99.90;;;;;;5071505;28;20303;-64
2023/07/08 08:21:00;;;;;;;4.55;3.17;;;16.70;99.90;;;;;;5076133;28;20410;-64
2023/07/08 08:23:27;;;;;;;6.15;3.03;;;16.70;99.90;;;;;;5073829;28;20565;-63
2023/07/08 08:25:54;;;;;;;7.85;3.20;;;16.70;99.90;;;;;;5076123;28;20093;-63
2023/07/08 08:28:21;;;;;;;4.15;2.70;;;16.80;99.90;;;;;;5076918;28;20138;-63
2023/07/08 08:30:49;;;;;;;5.45;3.92;;;17.00;99.90;;;;;;5075153;28;20064;-64
2023/07/08 08:33:18;;;;;;;9.15;3.75;;;17.10;99.90;;;;;;5070797;28;20139;-64
2023/07/08 08:35:45;;;;;;;3.88;3.22;;;17.10;99.90;;;;;;5080359;28;20089;-64
2023/07/08 08:38:12;;;;;;;2.83;2.63;;;16.90;99.90;;;;;;5075970;28;20461;-63
2023/07/08 08:40:41;;;;;;;2.40;2.20;;;17.10;99.90;;;;;;5079198;28;20093;-64
2023/07/08 08:43:15;;;;;;;4.63;3.30;;;17.10;99.90;;;;;;5075491;28;20072;-63
2023/07/08 08:46:10;;;;;;;5.70;3.63;;;17.20;99.90;;;;;;5078465;28;20485;-65
2023/07/08 08:48:55;;;;;;;5.22;3.60;;;17.20;99.90;;;;;;5039643;28;20071;-63
2023/07/08 08:51:25;;;;;;;4.82;4.43;;;17.30;99.90;;;;;;5078174;28;20051;-64
2023/07/08 08:53:55;;;;;;;5.57;3.95;;;17.30;99.90;;;;;;5077909;28;20044;-64
2023/07/08 08:56:28;;;;;;;4.43;2.92;;;17.40;99.90;;;;;;5073061;28;20071;-65
2023/07/08 08:59:27;;;;;;;5.40;3.05;;;17.40;99.90;;;;;;5075308;28;20234;-64
2023/07/08 09:01:55;;;;;;;4.15;3.20;;;17.40;99.90;;;;;;5071718;28;20113;-63
2023/07/08 09:04:33;;;;;;;5.05;2.63;;;17.30;99.90;;;;;;5072487;28;20048;-63
2023/07/08 09:07:12;;;;;;;4.15;2.72;;;17.10;99.90;;;;;;5074164;28;20058;-64
2023/07/08 09:09:49;;;;;;;4.70;3.28;;;17.30;99.90;;;;;;5077124;28;20489;-63
2023/07/08 09:12:25;;;;;;;4.93;3.72;;;17.30;99.90;;;;;;5075629;28;20094;-63
2023/07/08 09:14:52;;;;;;;7.25;3.30;;;17.40;99.90;;;;;;5075713;28;20427;-63
2023/07/08 09:17:34;;;;;;;6.07;3.53;;;17.40;99.90;;;;;;5072640;28;20759;-64
2023/07/08 09:20:20;;;;;;;9.65;3.38;;;17.40;99.90;;;;;;5074823;28;20040;-63
2023/07/08 09:23:01;;;;;;;4.50;3.60;;;17.30;99.90;;;;;;5076320;28;20043;-64
2023/07/08 09:25:37;;;;;;;7.80;3.85;;;17.40;99.90;;;;;;5076875;28;20040;-64
2023/07/08 09:28:04;;;;;;;6.03;3.65;;;17.60;99.90;;;;;;5070132;28;20217;-64
2023/07/08 09:30:30;;;;;;;4.90;4.38;;;17.80;99.90;;;;;;5073248;28;20048;-63
2023/07/08 09:33:01;;;;;;;3.10;2.83;;;17.80;99.90;;;;;;5070708;28;20083;-64
2023/07/08 09:35:42;;;;;;;6.35;3.63;;;17.90;99.90;;;;;;5078435;28;20743;-64
2023/07/08 09:38:15;;;;;;;3.60;3.05;;;17.70;99.90;;;;;;5073557;28;20049;-63
2023/07/08 09:40:49;;;;;;;6.28;2.95;;;17.70;99.90;;;;;;5077120;28;20124;-63
2023/07/08 09:43:15;;;;;;;4.30;3.28;;;17.70;99.90;;;;;;5080548;28;20109;-65
2023/07/08 09:45:46;;;;;;;4.68;2.70;;;17.80;99.90;;;;;;5084258;28;20097;-63
2023/07/08 09:48:19;;;;;;;;;;;17.80;99.90;;;;;;5075858;28;20818;-63
2023/07/08 09:50:49;;;;;;;4.57;3.58;;;17.90;99.90;;;;;;5082049;28;19930;-64
2023/07/08 09:53:16;;;;;;;6.40;3.72;;;18.00;99.90;;;;;;5074900;28;20421;-65
2023/07/08 09:55:44;;;;;;;6.32;2.80;;;17.90;99.90;;;;;;5079424;28;20060;-63
2023/07/08 09:58:16;;;;;;;5.03;3.60;;;17.90;99.90;;;;;;5077241;28;20048;-63
2023/07/08 10:00:43;;;;;;;3.83;3.53;;;17.90;99.90;;;;;;5076902;28;20040;-64
2023/07/08 10:03:37;;;;;;;4.32;2.90;;;18.10;99.90;;;;;;5073344;28;20602;-63
2023/07/08 10:06:25;;;;;;;4.28;3.25;;;18.00;99.90;;;;;;5077747;28;20505;-65
2023/07/08 10:08:59;;;;;;;6.32;3.65;;;18.00;99.90;;;;;;5078247;28;20049;-65
2023/07/08 10:11:47;;;;;;;5.15;2.80;;;18.10;99.90;;;;;;5081121;28;20063;-63
2023/07/08 10:14:25;;;;;;;11.23;3.75;;;18.00;99.90;;;;;;5075971;28;20041;-65
2023/07/08 10:16:53;;;;;;;3.78;3.35;;;17.90;99.90;;;;;;5079179;28;20108;-63
2023/07/08 10:19:20;;;;;;;4.43;3.85;;;18.00;99.90;;;;;;5080720;28;20044;-64
2023/07/08 10:21:51;;;;;;;5.30;2.95;;;18.00;99.90;;;;;;5079742;28;20052;-64
2023/07/08 10:24:28;;;;;;;4.32;2.75;;;18.00;99.90;;;;;;5080399;28;20348;-65
2023/07/08 10:27:20;;;;;;;3.92;3.47;;;18.00;99.90;;;;;;5080746;28;20044;-64
2023/07/08 10:29:52;;;;;;;3.65;2.97;;;18.10;99.90;;;;;;5075769;28;20044;-65
2023/07/08 10:32:38;;;;;;;4.18;3.75;;;18.20;99.90;;;;;;5077289;28;20047;-64
2023/07/08 10:35:32;;;;;;;3.97;3.15;;;18.20;99.90;;;;;;5077372;28;20048;-64
2023/07/08 10:38:17;;;;;;;5.90;2.90;;;18.40;99.90;;;;;;5080079;28;20127;-63
2023/07/08 10:40:48;;;;;;;3.67;3.33;;;18.50;99.90;;;;;;5080333;28;20710;-64
2023/07/08 10:43:24;;;;;;;4.70;3.30;;;18.60;99.90;;;;;;5073809;28;20036;-63
2023/07/08 10:46:10;;;;;;;3.47;2.70;;;18.70;99.90;;;;;;5080060;28;20044;-64
2023/07/08 10:49:04;;;;;;;5.15;2.67;;;18.70;99.90;;;;;;5078757;28;20052;-64
2023/07/08 10:51:44;;;;;;;5.78;4.25;;;18.80;99.90;;;;;;5075735;28;20492;-64
2023/07/08 10:54:35;;;;;;;4.13;2.53;;;19.00;99.90;;;;;;5075684;28;20051;-63
2023/07/08 10:57:38;;;;;;;3.25;2.95;;;18.80;99.90;;;;;;5082233;28;20546;-63
2023/07/08 11:00:42;;;;;;;6.15;3.15;;;19.00;99.90;;;;;;5045847;28;20797;-63
2023/07/08 11:03:08;;;;;;;7.63;3.08;;;19.20;99.90;;;;;;5075274;28;20812;-63
2023/07/08 11:05:35;;;;;;;3.35;3.05;;;19.40;99.90;;;;;;5077543;28;20130;-65
2023/07/08 11:08:22;;;;;;;3.80;3.22;;;19.30;99.90;;;;;;5074527;28;20091;-65
2023/07/08 11:11:13;;;;;;;4.65;2.50;;;19.40;99.90;;;;;;5081288;28;20043;-65
2023/07/08 11:13:55;;;;;;;4.82;2.80;;;19.50;99.90;;;;;;5082717;28;20036;-64
2023/07/08 11:16:34;;;;;;;5.20;3.15;;;19.50;99.90;;;;;;5076888;28;20062;-63
2023/07/08 11:19:15;;;;;;;15.57;3.55;;;19.40;99.90;;;;;;5079420;28;20044;-64
2023/07/08 11:21:47;;;;;;;5.22;3.85;;;19.50;99.90;;;;;;5076983;28;20036;-64
2023/07/08 11:24:38;;;;;;;4.30;3.03;;;19.20;99.90;;;;;;5075579;28;20040;-64
2023/07/08 11:27:21;;;;;;;3.35;2.92;;;19.30;99.90;;;;;;5080658;28;20094;-64
2023/07/08 11:29:54;;;;;;;4.50;3.30;;;19.30;99.90;;;;;;5076169;28;20040;-65
2023/07/08 11:32:26;;;;;;;2.25;2.05;;;19.40;99.90;;;;;;5077387;28;20542;-63
2023/07/08 11:34:55;;;;;;;5.22;3.33;;;19.50;99.90;;;;;;5073992;28;20044;-64
2023/07/08 11:37:23;;;;;;;3.00;2.72;;;19.40;99.90;;;;;;5076282;28;20052;-63
2023/07/08 11:39:58;;;;;;;3.25;2.65;;;19.30;99.90;;;;;;5076912;28;20060;-65
2023/07/08 11:42:44;;;;;;;6.78;3.70;;;19.50;99.90;;;;;;5077088;28;20035;-64
2023/07/08 11:45:53;;;;;;;4.45;2.83;;;19.70;99.90;;;;;;5076291;28;20044;-64
2023/07/08 11:48:43;;;;;;;4.75;2.80;;;19.50;99.90;;;;;;5079558;28;20223;-63
2023/07/08 11:51:14;;;;;;;;;;;19.40;99.90;;;;;;5074057;28;20059;-64
2023/07/08 11:53:59;;;;;;;5.25;2.90;;;19.60;99.90;;;;;;5073976;28;19959;-65
2023/07/08 11:56:26;;;;;;;5.20;3.22;;;19.60;99.90;;;;;;5079692;28;20415;-63
2023/07/08 11:59:11;;;;;;;3.58;2.65;;;19.80;99.90;;;;;;5075386;28;20056;-65
2023/07/08 12:01:46;;;;;;;5.07;2.33;;;20.00;99.90;;;;;;5079056;28;20078;-65
2023/07/08 12:04:25;;;;;;;3.28;3.00;;;20.10;99.90;;;;;;5078650;28;20441;-63
2023/07/08 12:07:07;;;;;;;7.13;3.22;;;20.50;99.90;;;;;;5068985;28;20131;-64
2023/07/08 12:09:43;;;;;;;5.78;4.00;;;20.50;99.90;;;;;;5072370;28;20143;-64
2023/07/08 12:12:24;;;;;;;5.53;2.90;;;20.40;99.90;;;;;;5078978;28;20747;-64
2023/07/08 12:14:58;;;;;;;4.50;2.80;;;20.30;99.90;;;;;;5080325;28;20045;-64
2023/07/08 12:17:25;;;;;;;2.45;2.25;;;20.10;99.90;;;;;;5077058;28;20122;-64
2023/07/08 12:19:55;;;;;;;4.57;3.75;;;20.20;99.90;;;;;;5077010;28;20051;-64
2023/07/08 12:22:22;;;;;;;5.97;3.30;;;20.20;99.90;;;;;;5079702;28;20040;-64
2023/07/08 12:24:49;;;;;;;4.50;4.07;;;20.40;99.90;;;;;;5079826;28;20393;-65
2023/07/08 12:27:16;;;;;;;5.43;3.67;;;20.30;99.90;;;;;;5075431;28;20063;-64
2023/07/08 12:29:42;;;;;;;4.22;3.05;;;20.30;99.90;;;;;;5079777;28;20036;-65
2023/07/08 12:32:13;;;;;;;4.53;2.97;;;20.20;99.90;;;;;;5075218;28;20502;-65
2023/07/08 12:34:40;;;;;;;5.22;2.80;;;20.20;99.90;;;;;;5077168;28;20048;-64
2023/07/08 12:37:12;;;;;;;4.90;3.45;;;20.40;99.90;;;;;;5078386;28;20436;-65
2023/07/08 12:39:39;;;;;;;3.35;2.97;;;20.40;99.90;;;;;;5074918;28;20048;-64
2023/07/08 12:42:10;;;;;;;4.45;3.10;;;20.60;99.90;;;;;;5075727;28;20036;-64
2023/07/08 12:44:42;;;;;;;3.58;3.28;;;20.90;99.90;;;;;;5076771;28;20043;-63
2023/07/08 12:47:09;;;;;;;5.82;2.75;;;21.00;99.90;;;;;;5075072;28;20063;-63
2023/07/08 12:49:36;;;;;;;4.85;3.10;;;20.80;99.90;;;;;;5073500;28;20531;-64
2023/07/08 12:52:03;;;;;;;2.95;2.72;;;20.90;99.90;;;;;;5076670;28;20040;-63
2023/07/08 12:54:31;;;;;;;4.63;2.50;;;20.80;99.90;;;;;;5073779;28;20041;-65
2023/07/08 12:56:58;;;;;;;3.28;2.97;;;21.00;99.90;;;;;;5071099;28;20058;-64
2023/07/08 12:59:26;;;;;;;3.80;3.03;;;20.70;99.90;;;;;;5074242;28;20036;-63
2023/07/08 13:01:53;;;;;;;4.50;2.58;;;20.90;99.90;;;;;;5077259;28;20124;-64
2023/07/08 13:04:20;;;;;;;3.13;2.58;;;21.00;99.90;;;;;;5075910;28;20131;-64
2023/07/08 13:06:48;;;;;;;4.90;2.60;;;21.20;99.90;;;;;;5075521;28;20517;-64
2023/07/08 13:09:15;;;;;;;4.32;2.40;;;20.80;99.90;;;;;;5074787;28;20052;-64